Time;durP1;ratioP1;P1;durP2;ratioP2;P2;SDS_P1;SDS_P2;PMS_P1;PMS_P2;Temp;Humidity;BMP_temperature;BMP_pressure;BME280_temperature;BME280_humidity;BME280_pressure;Samples;Min_cycle;Max_cycle;Signal;HPM_P1;HPM_P2
2022/05/03 00:00:02;;;;;;;;;;;;;;;;;;5096461;28;19916;-77
2022/05/03 00:02:41;;;;;;;;;;;;;;;;;;5096483;28;19984;-76
2022/05/03 00:05:11;;;;;;;;;;;;;;;;;;5083335;28;19920;-77
2022/05/03 00:07:39;;;;;;;;;;;;;;;;;;5075669;28;20310;-77
2022/05/03 00:10:15;;;;;;;;;;;;;;;;;;5074321;28;20035;-77
2022/05/03 00:12:41;;;;;;;;;;;;;;;;;;5073603;28;19923;-77
2022/05/03 00:15:07;;;;;;;;;;;;;;;;;;5106703;28;19937;-79
2022/05/03 00:17:33;;;;;;;;;;;;;;;;;;5122147;28;20014;-77
2022/05/03 00:19:59;;;;;;;;;;;;;;;;;;5119355;28;19916;-79
2022/05/03 00:22:25;;;;;;;;;;;;;;;;;;5129978;28;19919;-78
2022/05/03 00:24:54;;;;;;;;;;;;;;;;;;5128951;28;19922;-79
2022/05/03 00:27:22;;;;;;;;;;;;;;;;;;5129690;28;19959;-78
2022/05/03 00:29:47;;;;;;;;;;;;;;;;;;5129846;28;19926;-79
2022/05/03 00:32:13;;;;;;;;;;;;;;;;;;5121117;28;19916;-77
2022/05/03 00:34:38;;;;;;;;;;;;;;;;;;5099556;28;19920;-79
2022/05/03 00:37:04;;;;;;;;;;;;;;;;;;5107853;28;20353;-79
2022/05/03 00:39:29;;;;;;;;;;;;;;;;;;5106412;28;20331;-79
2022/05/03 00:42:06;;;;;;;;;;;;;;;;;;5107094;28;19947;-79
2022/05/03 00:45:01;;;;;;;;;;;;;;;;;;5107930;28;19995;-79
2022/05/03 00:47:29;;;;;;;;;;;;;;;;;;5095072;28;19917;-79
2022/05/03 00:50:02;;;;;;;;;;;;;;;;;;5083932;28;19935;-78
2022/05/03 00:52:31;;;;;;;;;;;;;;;;;;5084817;28;19925;-79
2022/05/03 00:54:59;;;;;;;;;;;;;;;;;;5081279;28;19921;-77
2022/05/03 00:57:24;;;;;;;;;;;;;;;;;;5072844;28;20527;-77
2022/05/03 01:00:07;;;;;;;;;;;;;;;;;;5084851;28;19973;-78
2022/05/03 01:02:51;;;;;;;;;;;;;;;;;;5086085;28;19916;-79
2022/05/03 01:05:20;;;;;;;;;;;;;;;;;;5086913;28;19923;-78
2022/05/03 01:08:00;;;;;;;;;;;;;;;;;;5085720;28;20020;-77
2022/05/03 01:10:31;;;;;;;;;;;;;;;;;;5093062;28;19920;-76
2022/05/03 01:13:11;;;;;;;;;;;;;;;;;;5100572;28;19916;-78
2022/05/03 01:15:48;;;;;;;;;;;;;;;;;;5106089;28;19916;-78
2022/05/03 01:18:16;;;;;;;;;;;;;;;;;;5105184;28;20522;-78
2022/05/03 01:20:42;;;;;;;;;;;;;;;;;;5104768;28;19988;-78
2022/05/03 01:23:10;;;;;;;;;;;;;;;;;;5106129;28;20289;-78
2022/05/03 01:25:35;;;;;;;;;;;;;;;;;;5108446;28;20340;-78
2022/05/03 01:28:19;;;;;;;;;;;;;;;;;;5107710;28;19916;-78
2022/05/03 01:30:47;;;;;;;;;;;;;;;;;;5107287;28;20366;-78
2022/05/03 01:33:14;;;;;;;;;;;;;;;;;;5105986;28;19969;-78
2022/05/03 01:35:40;;;;;;;;;;;;;;;;;;5087866;28;19916;-78
2022/05/03 01:38:09;;;;;;;;;;;;;;;;;;5106727;28;19927;-78
2022/05/03 01:40:43;;;;;;;;;;;;;;;;;;5105721;28;19920;-78
2022/05/03 01:43:17;;;;;;;;;;;;;;;;;;5107054;28;19946;-78
2022/05/03 01:45:51;;;;;;;;;;;;;;;;;;5104916;28;19916;-79
2022/05/03 01:48:20;;;;;;;;;;;;;;;;;;5104616;28;19920;-79
2022/05/03 01:50:51;;;;;;;;;;;;;;;;;;5106329;28;19995;-79
2022/05/03 01:53:33;;;;;;;;;;;;;;;;;;5107138;28;19942;-78
2022/05/03 01:56:18;;;;;;;;;;;;;;;;;;5104522;28;19942;-78
2022/05/03 01:59:02;;;;;;;;;;;;;;;;;;5106076;28;19916;-79
2022/05/03 02:01:37;;;;;;;;;;;;;;;;;;5086028;28;21281;-78
2022/05/03 02:04:21;;;;;;;;;;;;;;;;;;5104906;28;19930;-78
2022/05/03 02:06:47;;;;;;;;;;;;;;;;;;5103240;28;19920;-78
2022/05/03 02:09:12;;;;;;;;;;;;;;;;;;5102459;28;19944;-78
2022/05/03 02:11:45;;;;;;;;;;;;;;;;;;5103857;28;19916;-78
2022/05/03 02:17:16;;;;;;;;;;;;;;;;;;5102897;28;19920;-79
2022/05/03 02:19:48;;;;;;;;;;;;;;;;;;5094219;28;19916;-78
2022/05/03 02:22:39;;;;;;;;;;;;;;;;;;5092661;28;19916;-78
2022/05/03 02:25:17;;;;;;;;;;;;;;;;;;5089594;28;20394;-77
2022/05/03 02:27:47;;;;;;;;;;;;;;;;;;5092991;28;20392;-78
2022/05/03 02:30:13;;;;;;;;;;;;;;;;;;5096279;28;20358;-78
2022/05/03 02:32:53;;;;;;;;;;;;;;;;;;5093794;28;19916;-78
2022/05/03 02:35:21;;;;;;;;;;;;;;;;;;5099510;28;20065;-79
2022/05/03 02:37:57;;;;;;;;;;;;;;;;;;5108896;28;19916;-79
2022/05/03 02:40:24;;;;;;;;;;;;;;;;;;5108162;28;20341;-79
2022/05/03 02:42:51;;;;;;;;;;;;;;;;;;5108180;28;19916;-79
2022/05/03 02:45:17;;;;;;;;;;;;;;;;;;5108358;28;19950;-79
2022/05/03 02:47:42;;;;;;;;;;;;;;;;;;5105337;28;19916;-78
2022/05/03 02:50:08;;;;;;;;;;;;;;;;;;5108062;28;19916;-79
2022/05/03 02:52:40;;;;;;;;;;;;;;;;;;5102048;28;19920;-78
2022/05/03 02:55:21;;;;;;;;;;;;;;;;;;5095729;28;19924;-78
2022/05/03 02:57:54;;;;;;;;;;;;;;;;;;5093961;28;19983;-78
2022/05/03 03:03:06;;;;;;;;;;;;;;;;;;5076956;28;19924;-77
2022/05/03 03:05:35;;;;;;;;;;;;;;;;;;5073396;28;20334;-77
2022/05/03 03:08:02;;;;;;;;;;;;;;;;;;5072986;28;19913;-77
2022/05/03 03:10:38;;;;;;;;;;;;;;;;;;5072101;28;19928;-77
2022/05/03 03:13:22;;;;;;;;;;;;;;;;;;5072114;28;20396;-77
2022/05/03 03:15:48;;;;;;;;;;;;;;;;;;5073170;28;19917;-76
2022/05/03 03:18:14;;;;;;;;;;;;;;;;;;5073181;28;20366;-77
2022/05/03 03:20:52;;;;;;;;;;;;;;;;;;5071921;28;19916;-77
2022/05/03 03:23:20;;;;;;;;;;;;;;;;;;5071007;28;20592;-77
2022/05/03 03:25:47;;;;;;;;;;;;;;;;;;5070473;28;20382;-77
2022/05/03 03:28:13;;;;;;;;;;;;;;;;;;5074711;28;19922;-77
2022/05/03 03:30:40;;;;;;;;;;;;;;;;;;5089671;28;19916;-77
2022/05/03 03:33:06;;;;;;;;;;;;;;;;;;5088299;28;19944;-77
2022/05/03 03:35:33;;;;;;;;;;;;;;;;;;5090284;28;19985;-77
2022/05/03 03:38:01;;;;;;;;;;;;;;;;;;5094995;28;19916;-77
2022/05/03 03:40:26;;;;;;;;;;;;;;;;;;5095371;28;20306;-77
2022/05/03 03:42:51;;;;;;;;;;;;;;;;;;5095784;28;20330;-77
2022/05/03 03:45:17;;;;;;;;;;;;;;;;;;5096284;28;19916;-77
2022/05/03 03:47:44;;;;;;;;;;;;;;;;;;5093874;28;19916;-77
2022/05/03 03:50:10;;;;;;;;;;;;;;;;;;5094687;28;20389;-77
2022/05/03 03:52:37;;;;;;;;;;;;;;;;;;5094382;28;19916;-77
2022/05/03 03:55:04;;;;;;;;;;;;;;;;;;5092925;28;20686;-77
2022/05/03 03:57:30;;;;;;;;;;;;;;;;;;5093090;28;19916;-77
2022/05/03 03:59:55;;;;;;;;;;;;;;;;;;5094532;28;19923;-77
2022/05/03 04:02:22;;;;;;;;;;;;;;;;;;5095710;28;19959;-77
2022/05/03 04:04:48;;;;;;;;;;;;;;;;;;5094578;28;19970;-77
2022/05/03 04:07:13;;;;;;;;;;;;;;;;;;5096580;28;20289;-77
2022/05/03 04:09:39;;;;;;;;;;;;;;;;;;5096594;28;19926;-77
2022/05/03 04:12:04;;;;;;;;;;;;;;;;;;5096592;28;19920;-77
2022/05/03 04:14:30;;;;;;;;;;;;;;;;;;5096302;28;19916;-77
2022/05/03 04:16:55;;;;;;;;;;;;;;;;;;5095831;28;19987;-77
2022/05/03 04:19:21;;;;;;;;;;;;;;;;;;5096577;28;19955;-77
2022/05/03 04:21:46;;;;;;;;;;;;;;;;;;5095524;28;19951;-77
2022/05/03 04:24:12;;;;;;;;;;;;;;;;;;5095105;28;19920;-77
2022/05/03 04:26:37;;;;;;;;;;;;;;;;;;5096234;28;20374;-77
2022/05/03 04:29:03;;;;;;;;;;;;;;;;;;5096361;28;19920;-77
2022/05/03 04:31:28;;;;;;;;;;;;;;;;;;5095313;28;20332;-77
2022/05/03 04:33:54;;;;;;;;;;;;;;;;;;5095961;28;20058;-77
2022/05/03 04:36:20;;;;;;;;;;;;;;;;;;5096212;28;19923;-77
2022/05/03 04:38:46;;;;;;;;;;;;;;;;;;5095277;28;19982;-77
2022/05/03 04:41:11;;;;;;;;;;;;;;;;;;5096148;28;20022;-77
2022/05/03 04:43:37;;;;;;;;;;;;;;;;;;5096068;28;19916;-77
2022/05/03 04:46:02;;;;;;;;;;;;;;;;;;5095999;28;19965;-77
2022/05/03 04:48:27;;;;;;;;;;;;;;;;;;5093438;28;19916;-77
2022/05/03 04:50:53;;;;;;;;;;;;;;;;;;5095780;28;19965;-77
2022/05/03 04:53:18;;;;;;;;;;;;;;;;;;5095975;28;20006;-77
2022/05/03 04:55:43;;;;;;;;;;;;;;;;;;5095688;28;19920;-77
2022/05/03 04:58:09;;;;;;;;;;;;;;;;;;5095758;28;19916;-77
2022/05/03 05:00:34;;;;;;;;;;;;;;;;;;5094856;28;19946;-77
2022/05/03 05:03:00;;;;;;;;;;;;;;;;;;5095781;28;19923;-77
2022/05/03 05:05:25;;;;;;;;;;;;;;;;;;5095579;28;19919;-77
2022/05/03 05:07:50;;;;;;;;;;;;;;;;;;5095497;28;19927;-77
2022/05/03 05:10:26;;;;;;;;;;;;;;;;;;5095348;28;19927;-77
2022/05/03 05:12:52;;;;;;;;;;;;;;;;;;5094250;28;20002;-77
2022/05/03 05:15:17;;;;;;;;;;;;;;;;;;5095467;28;20057;-77
2022/05/03 05:17:42;;;;;;;;;;;;;;;;;;5094691;28;19923;-77
2022/05/03 05:20:08;;;;;;;;;;;;;;;;;;5091637;28;19916;-77
2022/05/03 05:22:33;;;;;;;;;;;;;;;;;;5093269;28;19942;-77
2022/05/03 05:24:58;;;;;;;;;;;;;;;;;;5093386;28;20278;-77
2022/05/03 05:27:24;;;;;;;;;;;;;;;;;;5093657;28;19920;-77
2022/05/03 05:29:49;;;;;;;;;;;;;;;;;;5094136;28;19974;-77
2022/05/03 05:32:14;;;;;;;;;;;;;;;;;;5093322;28;20380;-77
2022/05/03 05:34:40;;;;;;;;;;;;;;;;;;5091902;28;19916;-77
2022/05/03 05:37:05;;;;;;;;;;;;;;;;;;5091603;28;19967;-77
2022/05/03 05:39:31;;;;;;;;;;;;;;;;;;5092422;28;19916;-77
2022/05/03 05:41:57;;;;;;;;;;;;;;;;;;5094079;28;20003;-77
2022/05/03 05:44:22;;;;;;;;;;;;;;;;;;5093698;28;19962;-77
2022/05/03 05:46:48;;;;;;;;;;;;;;;;;;5094780;28;20003;-77
2022/05/03 05:49:13;;;;;;;;;;;;;;;;;;5093284;28;20424;-77
2022/05/03 05:51:38;;;;;;;;;;;;;;;;;;5091856;28;19967;-77
2022/05/03 05:54:04;;;;;;;;;;;;;;;;;;5093801;28;19920;-77
2022/05/03 05:56:29;;;;;;;;;;;;;;;;;;5094182;28;20251;-77
2022/05/03 05:58:55;;;;;;;;;;;;;;;;;;5093499;28;19961;-77
2022/05/03 06:01:24;;;;;;;;;;;;;;;;;;5094047;28;20011;-77
2022/05/03 06:03:50;;;;;;;;;;;;;;;;;;5094152;28;20456;-77
2022/05/03 06:06:15;;;;;;;;;;;;;;;;;;5094363;28;19920;-77
2022/05/03 06:08:40;;;;;;;;;;;;;;;;;;5094133;28;19916;-77
2022/05/03 06:11:06;;;;;;;;;;;;;;;;;;5094349;28;19991;-77
2022/05/03 06:13:32;;;;;;;;;;;;;;;;;;5093384;28;20373;-77
2022/05/03 06:16:10;;;;;;;;;;;;;;;;;;5094207;28;19969;-77
2022/05/03 06:18:35;;;;;;;;;;;;;;;;;;5094181;28;19920;-77
2022/05/03 06:21:03;;;;;;;;;;;;;;;;;;5094541;28;19923;-76
2022/05/03 06:23:29;;;;;;;;;;;;;;;;;;5093367;28;19923;-75
2022/05/03 06:25:54;;;;;;;;;;;;;;;;;;5094462;28;20373;-76
2022/05/03 06:28:19;;;;;;;;;;;;;;;;;;5075144;28;19965;-76
2022/05/03 06:30:45;;;;;;;;;;;;;;;;;;5093161;28;19926;-77
2022/05/03 06:33:10;;;;;;;;;;;;;;;;;;5094118;28;19916;-76
2022/05/03 06:35:36;;;;;;;;;;;;;;;;;;5094043;28;19961;-77
2022/05/03 06:38:01;;;;;;;;;;;;;;;;;;5093920;28;20007;-77
2022/05/03 06:40:26;;;;;;;;;;;;;;;;;;5091874;28;19945;-76
2022/05/03 06:42:52;;;;;;;;;;;;;;;;;;5093978;28;20384;-77
2022/05/03 06:45:18;;;;;;;;;;;;;;;;;;5093877;28;19916;-76
2022/05/03 06:47:48;;;;;;;;;;;;;;;;;;5093846;28;20419;-76
2022/05/03 06:50:13;;;;;;;;;;;;;;;;;;5097642;28;19926;-80
2022/05/03 06:52:39;;;;;;;;;;;;;;;;;;5094482;28;19916;-77
2022/05/03 06:55:05;;;;;;;;;;;;;;;;;;5092828;28;20354;-76
2022/05/03 06:57:30;;;;;;;;;;;;;;;;;;5092269;28;20407;-77
2022/05/03 06:59:56;;;;;;;;;;;;;;;;;;5093768;28;19979;-77
2022/05/03 07:02:21;;;;;;;;;;;;;;;;;;5084853;28;19947;-77
2022/05/03 07:04:47;;;;;;;;;;;;;;;;;;5073801;28;19959;-77
2022/05/03 07:07:13;;;;;;;;;;;;;;;;;;5073248;28;19921;-77
2022/05/03 07:09:39;;;;;;;;;;;;;;;;;;5073522;28;19942;-78
2022/05/03 07:12:04;;;;;;;;;;;;;;;;;;5076049;28;19925;-77
2022/05/03 07:14:30;;;;;;;;;;;;;;;;;;5077733;28;20324;-77
2022/05/03 07:16:55;;;;;;;;;;;;;;;;;;5077435;28;19964;-76
2022/05/03 07:24:49;;;;;;;;;;;;;;;;;;5097140;28;19952;-77
2022/05/03 07:27:14;;;;;;;;;;;;;;;;;;5097453;28;19927;-77
2022/05/03 07:29:39;;;;;;;;;;;;;;;;;;5097202;28;20440;-76
2022/05/03 07:32:05;;;;;;;;;;;;;;;;;;5097810;28;19928;-77
2022/05/03 07:34:30;;;;;;;;;;;;;;;;;;5105435;28;19979;-78
2022/05/03 07:36:56;;;;;;;;;;;;;;;;;;5103875;28;20014;-78
2022/05/03 07:39:21;;;;;;;;;;;;;;;;;;5100948;28;19938;-75
2022/05/03 07:41:46;;;;;;;;;;;;;;;;;;5096549;28;19993;-76
2022/05/03 07:44:12;;;;;;;;;;;;;;;;;;5096136;28;19912;-75
2022/05/03 07:46:37;;;;;;;;;;;;;;;;;;5096293;28;19978;-74
2022/05/03 07:49:02;;;;;;;;;;;;;;;;;;5096005;28;19920;-74
2022/05/03 07:51:28;;;;;;;;;;;;;;;;;;5095624;28;19916;-75
2022/05/03 07:53:53;;;;;;;;;;;;;;;;;;5096988;28;20370;-73
2022/05/03 07:56:18;;;;;;;;;;;;;;;;;;5096551;28;19927;-74
2022/05/03 07:58:44;;;;;;;;;;;;;;;;;;5096832;28;19943;-74
2022/05/03 08:01:09;;;;;;;;;;;;;;;;;;5095134;28;19915;-74
2022/05/03 08:03:34;;;;;;;;;;;;;;;;;;5096287;28;19919;-73
2022/05/03 08:06:01;;;;;;;;;;;;;;;;;;5096739;28;20007;-73
2022/05/03 08:08:27;;;;;;;;;;;;;;;;;;5095331;28;19916;-73
2022/05/03 08:10:52;;;;;;;;;;;;;;;;;;5096540;28;19983;-73
2022/05/03 08:13:17;;;;;;;;;;;;;;;;;;5096336;28;20285;-73
2022/05/03 08:15:42;;;;;;;;;;;;;;;;;;5095285;28;19916;-74
2022/05/03 08:18:08;;;;;;;;;;;;;;;;;;5095906;28;19916;-74
2022/05/03 08:20:33;;;;;;;;;;;;;;;;;;5096459;28;19942;-75
2022/05/03 08:23:02;;;;;;;;;;;;;;;;;;5094603;28;19916;-73
2022/05/03 08:25:28;;;;;;;;;;;;;;;;;;5095820;28;19916;-72
2022/05/03 08:27:55;;;;;;;;;;;;;;;;;;5092531;28;19916;-75
2022/05/03 08:30:20;;;;;;;;;;;;;;;;;;5094841;28;19920;-75
2022/05/03 08:32:47;;;;;;;;;;;;;;;;;;5095666;28;20007;-73
2022/05/03 08:35:12;;;;;;;;;;;;;;;;;;5096069;28;20355;-74
2022/05/03 08:43:06;;;;;;;;;;;;;;;;;;5093176;28;19967;-75
2022/05/03 08:45:32;;;;;;;;;;;;;;;;;;5095710;28;19962;-76
2022/05/03 08:48:00;;;;;;;;;;;;;;;;;;5094293;28;19923;-74
2022/05/03 08:50:25;;;;;;;;;;;;;;;;;;5077562;28;19920;-74
2022/05/03 08:52:51;;;;;;;;;;;;;;;;;;5095063;28;19927;-74
2022/05/03 08:55:16;;;;;;;;;;;;;;;;;;5095054;28;19927;-72
2022/05/03 08:57:42;;;;;;;;;;;;;;;;;;5095352;28;19916;-74
2022/05/03 09:00:09;;;;;;;;;;;;;;;;;;5094795;28;20386;-75
2022/05/03 09:02:34;;;;;;;;;;;;;;;;;;5094727;28;20011;-74
2022/05/03 09:05:02;;;;;;;;;;;;;;;;;;5095372;28;20401;-74
2022/05/03 09:07:28;;;;;;;;;;;;;;;;;;5095198;28;20255;-74
2022/05/03 09:09:54;;;;;;;;;;;;;;;;;;5094332;28;20026;-74
2022/05/03 09:12:23;;;;;;;;;;;;;;;;;;5093581;28;19916;-74
2022/05/03 09:14:49;;;;;;;;;;;;;;;;;;5095237;28;19969;-75
2022/05/03 09:17:14;;;;;;;;;;;;;;;;;;5094333;28;20304;-74
2022/05/03 09:19:39;;;;;;;;;;;;;;;;;;5093760;28;19958;-74
2022/05/03 09:24:52;;;;;;;;;;;;;;;;;;5074646;28;19954;-73
2022/05/03 09:27:21;;;;;;;;;;;;;;;;;;5088834;28;19965;-74
2022/05/03 09:30:04;;;;;;;;;;;;;;;;;;5095020;28;19927;-74
2022/05/03 09:32:32;;;;;;;;;;;;;;;;;;5094011;28;19924;-74
2022/05/03 09:34:58;;;;;;;;;;;;;;;;;;5094120;28;19912;-73
2022/05/03 09:37:36;;;;;;;;;;;;;;;;;;5094731;28;19942;-73
2022/05/03 09:40:02;;;;;;;;;;;;;;;;;;5094992;28;19962;-74
2022/05/03 09:42:28;;;;;;;;;;;;;;;;;;5094813;28;19916;-73
2022/05/03 09:44:54;;;;;;;;;;;;;;;;;;5094821;28;20362;-73
2022/05/03 09:47:22;;;;;;;;;;;;;;;;;;5094873;28;19923;-73
2022/05/03 09:49:48;;;;;;;;;;;;;;;;;;5094644;28;20445;-73
2022/05/03 09:52:35;;;;;;;;;;;;;;;;;;5094546;28;20057;-73
2022/05/03 09:55:03;;;;;;;;;;;;;;;;;;5093682;28;19924;-73
2022/05/03 09:57:30;;;;;;;;;;;;;;;;;;5094659;28;20251;-74
2022/05/03 09:59:57;;;;;;;;;;;;;;;;;;5094525;28;19923;-75
2022/05/03 10:02:23;;;;;;;;;;;;;;;;;;5093330;28;19918;-74
2022/05/03 10:04:50;;;;;;;;;;;;;;;;;;5093173;28;19916;-74
2022/05/03 10:07:15;;;;;;;;;;;;;;;;;;5094376;28;19916;-73
2022/05/03 10:09:42;;;;;;;;;;;;;;;;;;5094331;28;19927;-73
2022/05/03 10:12:08;;;;;;;;;;;;;;;;;;5093584;28;19916;-73
2022/05/03 10:14:34;;;;;;;;;;;;;;;;;;5092748;28;20281;-73
2022/05/03 10:22:31;;;;;;;;;;;;;;;;;;5093258;28;20002;-73
2022/05/03 10:24:56;;;;;;;;;;;;;;;;;;5093901;28;19954;-73
2022/05/03 10:27:27;;;;;;;;;;;;;;;;;;5093902;28;19961;-73
2022/05/03 10:30:11;;;;;;;;;;;;;;;;;;5094026;28;19920;-73
2022/05/03 10:32:37;;;;;;;;;;;;;;;;;;5073781;28;20296;-73
2022/05/03 10:35:04;;;;;;;;;;;;;;;;;;5072411;28;19917;-73
2022/05/03 10:37:30;;;;;;;;;;;;;;;;;;5073907;28;19916;-74
2022/05/03 10:40:00;;;;;;;;;;;;;;;;;;5089420;28;19956;-73
2022/05/03 10:42:26;;;;;;;;;;;;;;;;;;5094033;28;19974;-73
2022/05/03 10:44:56;;;;;;;;;;;;;;;;;;5092981;28;20384;-73
2022/05/03 10:47:38;;;;;;;;;;;;;;;;;;5092538;28;19916;-74
2022/05/03 10:50:12;;;;;;;;;;;;;;;;;;5092539;28;19920;-74
2022/05/03 10:52:38;;;;;;;;;;;;;;;;;;5093013;28;19916;-75
2022/05/03 10:55:05;;;;;;;;;;;;;;;;;;5093566;28;20003;-76
2022/05/03 10:57:30;;;;;;;;;;;;;;;;;;5091080;28;19916;-76
2022/05/03 10:59:55;;;;;;;;;;;;;;;;;;5092235;28;20392;-75
2022/05/03 11:02:22;;;;;;;;;;;;;;;;;;5093720;28;19916;-75
2022/05/03 11:05:11;;;;;;;;;;;;;;;;;;5093048;28;20007;-76
2022/05/03 11:07:37;;;;;;;;;;;;;;;;;;5093613;28;19916;-75
2022/05/03 11:10:34;;;;;;;;;;;;;;;;;;5092772;28;20282;-75
2022/05/03 11:13:00;;;;;;;;;;;;;;;;;;5093018;28;19916;-74
2022/05/03 11:15:25;;;;;;;;;;;;;;;;;;5093487;28;20595;-75
2022/05/03 11:17:51;;;;;;;;;;;;;;;;;;5092315;28;19919;-75
2022/05/03 11:20:20;;;;;;;;;;;;;;;;;;5092505;28;19923;-74
2022/05/03 11:22:45;;;;;;;;;;;;;;;;;;5093176;28;20055;-75
2022/05/03 11:25:13;;;;;;;;;;;;;;;;;;5092754;28;19965;-75
2022/05/03 11:27:38;;;;;;;;;;;;;;;;;;5092817;28;19916;-75
2022/05/03 11:30:09;;;;;;;;;;;;;;;;;;5092640;28;19930;-75
2022/05/03 11:32:38;;;;;;;;;;;;;;;;;;5093393;28;20038;-75
2022/05/03 11:35:05;;;;;;;;;;;;;;;;;;5092103;28;20061;-75
2022/05/03 11:37:31;;;;;;;;;;;;;;;;;;5093131;28;19916;-75
2022/05/03 11:40:00;;;;;;;;;;;;;;;;;;5092474;28;19952;-75
2022/05/03 11:42:26;;;;;;;;;;;;;;;;;;5092086;28;20023;-75
2022/05/03 11:44:51;;;;;;;;;;;;;;;;;;5092962;28;20003;-75
2022/05/03 11:47:17;;;;;;;;;;;;;;;;;;5092260;28;19970;-74
2022/05/03 11:49:43;;;;;;;;;;;;;;;;;;5092898;28;19966;-75
2022/05/03 11:57:42;;;;;;;;;;;;;;;;;;5094468;28;19920;-75
2022/05/03 12:00:11;;;;;;;;;;;;;;;;;;5096139;28;19949;-75
2022/05/03 12:02:45;;;;;;;;;;;;;;;;;;5096432;28;19985;-75
2022/05/03 12:05:15;;;;;;;;;;;;;;;;;;5095199;28;19974;-75
2022/05/03 12:07:40;;;;;;;;;;;;;;;;;;5096569;28;19916;-75
2022/05/03 12:10:15;;;;;;;;;;;;;;;;;;5096148;28;19927;-75
2022/05/03 12:12:43;;;;;;;;;;;;;;;;;;5096422;28;19923;-75
2022/05/03 12:15:20;;;;;;;;;;;;;;;;;;5095462;28;19918;-75
2022/05/03 12:17:59;;;;;;;;;;;;;;;;;;5094711;28;19920;-76
2022/05/03 12:20:26;;;;;;;;;;;;;;;;;;5095832;28;19920;-75
2022/05/03 12:23:10;;;;;;;;;;;;;;;;;;5095904;28;19916;-76
2022/05/03 12:25:36;;;;;;;;;;;;;;;;;;5095947;28;19962;-75
2022/05/03 12:28:03;;;;;;;;;;;;;;;;;;5096328;28;20370;-75
2022/05/03 12:30:28;;;;;;;;;;;;;;;;;;5094115;28;19922;-76
2022/05/03 12:32:53;;;;;;;;;;;;;;;;;;5095329;28;20019;-76
2022/05/03 12:35:27;;;;;;;;;;;;;;;;;;5095185;28;19916;-76
2022/05/03 12:37:53;;;;;;;;;;;;;;;;;;5096373;28;20364;-76
2022/05/03 12:40:25;;;;;;;;;;;;;;;;;;5095740;28;19916;-76
2022/05/03 12:42:50;;;;;;;;;;;;;;;;;;5096025;28;20010;-76
2022/05/03 12:45:19;;;;;;;;;;;;;;;;;;5106384;28;20353;-76
2022/05/03 12:47:44;;;;;;;;;;;;;;;;;;5116644;28;19927;-75
2022/05/03 12:50:10;;;;;;;;;;;;;;;;;;5116212;28;19919;-75
2022/05/03 12:52:35;;;;;;;;;;;;;;;;;;5114350;28;19915;-75
2022/05/03 12:55:01;;;;;;;;;;;;;;;;;;5113534;28;19923;-75
2022/05/03 13:00:11;;;;;;;;;;;;;;;;;;5093566;28;20373;-76
2022/05/03 13:02:37;;;;;;;;;;;;;;;;;;5093115;28;19922;-76
2022/05/03 13:05:02;;;;;;;;;;;;;;;;;;5093478;28;20300;-76
2022/05/03 13:07:28;;;;;;;;;;;;;;;;;;5093026;28;19923;-76
2022/05/03 13:09:53;;;;;;;;;;;;;;;;;;5091016;28;20466;-76
2022/05/03 13:12:18;;;;;;;;;;;;;;;;;;5094277;28;19985;-75
2022/05/03 13:14:44;;;;;;;;;;;;;;;;;;5094508;28;19923;-75
2022/05/03 13:17:09;;;;;;;;;;;;;;;;;;5095451;28;20011;-75
2022/05/03 13:19:35;;;;;;;;;;;;;;;;;;5095217;28;20316;-75
2022/05/03 13:22:00;;;;;;;;;;;;;;;;;;5094303;28;19952;-75
2022/05/03 13:24:25;;;;;;;;;;;;;;;;;;5095265;28;19916;-75
2022/05/03 13:26:52;;;;;;;;;;;;;;;;;;5095138;28;19916;-75
2022/05/03 13:29:18;;;;;;;;;;;;;;;;;;5093934;28;20354;-75
2022/05/03 13:31:43;;;;;;;;;;;;;;;;;;5093145;28;19981;-75
2022/05/03 13:34:09;;;;;;;;;;;;;;;;;;5095047;28;20362;-75
2022/05/03 13:42:05;;;;;;;;;;;;;;;;;;5093870;28;20010;-75
2022/05/03 13:44:31;;;;;;;;;;;;;;;;;;5094854;28;20054;-75
2022/05/03 13:46:58;;;;;;;;;;;;;;;;;;5094780;28;20015;-75
2022/05/03 13:49:23;;;;;;;;;;;;;;;;;;5094612;28;20382;-75
2022/05/03 13:51:49;;;;;;;;;;;;;;;;;;5093504;28;19916;-75
2022/05/03 13:54:14;;;;;;;;;;;;;;;;;;5093799;28;19924;-75
2022/05/03 13:56:39;;;;;;;;;;;;;;;;;;5094741;28;19920;-75
2022/05/03 13:59:05;;;;;;;;;;;;;;;;;;5094517;28;19950;-75
2022/05/03 14:01:31;;;;;;;;;;;;;;;;;;5093624;28;19923;-75
2022/05/03 14:03:59;;;;;;;;;;;;;;;;;;5094270;28;20014;-75
2022/05/03 14:06:24;;;;;;;;;;;;;;;;;;5094527;28;19924;-75
2022/05/03 14:08:49;;;;;;;;;;;;;;;;;;5093500;28;19922;-75
2022/05/03 14:11:15;;;;;;;;;;;;;;;;;;5093086;28;19993;-76
2022/05/03 14:13:40;;;;;;;;;;;;;;;;;;5094277;28;19920;-76
2022/05/03 14:16:05;;;;;;;;;;;;;;;;;;5092623;28;19924;-76
2022/05/03 14:18:31;;;;;;;;;;;;;;;;;;5093911;28;19923;-76
2022/05/03 14:20:57;;;;;;;;;;;;;;;;;;5093513;28;19916;-76
2022/05/03 14:23:22;;;;;;;;;;;;;;;;;;5093441;28;20274;-76
2022/05/03 14:25:48;;;;;;;;;;;;;;;;;;5094275;28;19923;-77
2022/05/03 14:28:14;;;;;;;;;;;;;;;;;;5092719;28;19923;-76
2022/05/03 14:30:39;;;;;;;;;;;;;;;;;;5094021;28;20425;-76
2022/05/03 14:33:06;;;;;;;;;;;;;;;;;;5094253;28;20439;-76
2022/05/03 14:35:32;;;;;;;;;;;;;;;;;;5093263;28;19916;-76
2022/05/03 14:37:58;;;;;;;;;;;;;;;;;;5094069;28;19923;-76
2022/05/03 14:40:24;;;;;;;;;;;;;;;;;;5076047;28;19916;-75
2022/05/03 14:42:49;;;;;;;;;;;;;;;;;;5094106;28;20355;-76
2022/05/03 14:45:17;;;;;;;;;;;;;;;;;;5091873;28;19927;-76
2022/05/03 14:47:42;;;;;;;;;;;;;;;;;;5093755;28;19916;-76
2022/05/03 14:50:08;;;;;;;;;;;;;;;;;;5093264;28;20010;-75
2022/05/03 14:52:34;;;;;;;;;;;;;;;;;;5093979;28;20324;-76
2022/05/03 14:54:59;;;;;;;;;;;;;;;;;;5092486;28;19927;-76
2022/05/03 15:05:21;;;;;;;;;;;;;;;;;;5092893;28;19974;-76
2022/05/03 15:07:47;;;;;;;;;;;;;;;;;;5093498;28;19922;-75
2022/05/03 15:10:13;;;;;;;;;;;;;;;;;;5092733;28;19924;-75
2022/05/03 15:12:39;;;;;;;;;;;;;;;;;;5093230;28;19935;-76
2022/05/03 15:15:05;;;;;;;;;;;;;;;;;;5093245;28;20362;-76
2022/05/03 15:17:30;;;;;;;;;;;;;;;;;;5092723;28;19923;-75
2022/05/03 15:19:55;;;;;;;;;;;;;;;;;;5092466;28;19916;-76
2022/05/03 15:24:35;;;;;;;;;;;;;;;;;;5093713;28;19916;-75
2022/05/03 15:25:09;;;;;;;;;;;;;;;;;;5093508;28;19962;-76
2022/05/03 15:27:35;;;;;;;;;;;;;;;;;;5075347;28;19951;-75
2022/05/03 15:30:03;;;;;;;;;;;;;;;;;;5092676;28;19920;-75
2022/05/03 15:32:29;;;;;;;;;;;;;;;;;;5094622;28;19916;-76
2022/05/03 15:34:55;;;;;;;;;;;;;;;;;;5095547;28;20005;-77
2022/05/03 15:37:20;;;;;;;;;;;;;;;;;;5097161;28;20381;-77
2022/05/03 15:39:46;;;;;;;;;;;;;;;;;;5097253;28;19916;-76
2022/05/03 15:42:11;;;;;;;;;;;;;;;;;;5097325;28;19916;-76
2022/05/03 15:44:38;;;;;;;;;;;;;;;;;;5096331;28;19933;-75
2022/05/03 15:47:04;;;;;;;;;;;;;;;;;;5095975;28;19916;-75
2022/05/03 15:49:32;;;;;;;;;;;;;;;;;;5097067;28;19923;-75
2022/05/03 15:51:58;;;;;;;;;;;;;;;;;;5095700;28;19920;-75
2022/05/03 15:54:25;;;;;;;;;;;;;;;;;;5096645;28;19977;-75
2022/05/03 15:56:50;;;;;;;;;;;;;;;;;;5096886;28;19920;-75
2022/05/03 15:59:15;;;;;;;;;;;;;;;;;;5095817;28;19932;-75
2022/05/03 16:01:41;;;;;;;;;;;;;;;;;;5097041;28;20399;-75
2022/05/03 16:04:06;;;;;;;;;;;;;;;;;;5096034;28;19935;-75
2022/05/03 16:06:32;;;;;;;;;;;;;;;;;;5096682;28;19916;-75
2022/05/03 16:08:58;;;;;;;;;;;;;;;;;;5113860;28;20426;-76
2022/05/03 16:11:23;;;;;;;;;;;;;;;;;;5117300;28;19916;-75
2022/05/03 16:13:48;;;;;;;;;;;;;;;;;;5099777;28;19916;-75
2022/05/03 16:16:14;;;;;;;;;;;;;;;;;;5096505;28;19916;-75
2022/05/03 16:18:39;;;;;;;;;;;;;;;;;;5094362;28;19957;-75
2022/05/03 16:21:06;;;;;;;;;;;;;;;;;;5078432;28;19920;-75
2022/05/03 16:23:32;;;;;;;;;;;;;;;;;;5096414;28;19962;-75
2022/05/03 16:25:57;;;;;;;;;;;;;;;;;;5096524;28;19916;-75
2022/05/03 16:28:23;;;;;;;;;;;;;;;;;;5096330;28;19922;-75
2022/05/03 16:30:49;;;;;;;;;;;;;;;;;;5095540;28;19920;-75
2022/05/03 16:33:14;;;;;;;;;;;;;;;;;;5096283;28;19916;-75
2022/05/03 16:35:40;;;;;;;;;;;;;;;;;;5095249;28;19916;-76
2022/05/03 16:43:33;;;;;;;;;;;;;;;;;;5094979;28;19986;-75
2022/05/03 16:45:58;;;;;;;;;;;;;;;;;;5095893;28;19924;-76
2022/05/03 16:48:24;;;;;;;;;;;;;;;;;;5096001;28;19916;-75
2022/05/03 16:50:50;;;;;;;;;;;;;;;;;;5095894;28;19920;-75
2022/05/03 16:53:15;;;;;;;;;;;;;;;;;;5095105;28;19919;-75
2022/05/03 16:55:40;;;;;;;;;;;;;;;;;;5095584;28;20349;-75
2022/05/03 16:58:09;;;;;;;;;;;;;;;;;;5095779;28;19973;-76
2022/05/03 17:00:35;;;;;;;;;;;;;;;;;;5093680;28;20359;-75
2022/05/03 17:03:00;;;;;;;;;;;;;;;;;;5095700;28;20587;-75
2022/05/03 17:05:26;;;;;;;;;;;;;;;;;;5094500;28;19916;-75
2022/05/03 17:07:51;;;;;;;;;;;;;;;;;;5095579;28;20409;-76
2022/05/03 17:10:16;;;;;;;;;;;;;;;;;;5094653;28;19924;-75
2022/05/03 17:12:42;;;;;;;;;;;;;;;;;;5095563;28;20413;-75
2022/05/03 17:15:07;;;;;;;;;;;;;;;;;;5094523;28;19916;-76
2022/05/03 17:17:33;;;;;;;;;;;;;;;;;;5095340;28;19922;-74
2022/05/03 17:19:58;;;;;;;;;;;;;;;;;;5095414;28;19916;-76
2022/05/03 17:22:24;;;;;;;;;;;;;;;;;;5095385;28;19916;-75
2022/05/03 17:24:50;;;;;;;;;;;;;;;;;;5094352;28;19920;-75
2022/05/03 17:27:16;;;;;;;;;;;;;;;;;;5095222;28;19919;-75
2022/05/03 17:29:42;;;;;;;;;;;;;;;;;;5093897;28;19967;-75
2022/05/03 17:32:08;;;;;;;;;;;;;;;;;;5094361;28;19959;-75
2022/05/03 17:34:34;;;;;;;;;;;;;;;;;;5095205;28;19958;-75
2022/05/03 17:36:59;;;;;;;;;;;;;;;;;;5093797;28;20358;-75
2022/05/03 17:39:24;;;;;;;;;;;;;;;;;;5094950;28;20017;-75